sensor_id;sensor_type;location;lat;lon;timestamp;P1;durP1;ratioP1;P2;durP2;ratioP2
39848;SDS011;25518;47.878;15.914;2023-05-02T00:01:04;5.60;;;3.05;;
39848;SDS011;25518;47.878;15.914;2023-05-02T00:03:54;6.13;;;2.78;;
39848;SDS011;25518;47.878;15.914;2023-05-02T00:06:43;5.90;;;2.80;;
39848;SDS011;25518;47.878;15.914;2023-05-02T00:09:34;4.30;;;2.50;;
39848;SDS011;25518;47.878;15.914;2023-05-02T00:12:23;4.75;;;2.70;;
39848;SDS011;25518;47.878;15.914;2023-05-02T00:15:13;4.50;;;2.88;;
39848;SDS011;25518;47.878;15.914;2023-05-02T00:18:03;5.05;;;3.33;;
39848;SDS011;25518;47.878;15.914;2023-05-02T00:20:54;5.07;;;3.28;;
39848;SDS011;25518;47.878;15.914;2023-05-02T00:23:45;5.43;;;3.03;;
39848;SDS011;25518;47.878;15.914;2023-05-02T00:26:34;5.00;;;2.90;;
39848;SDS011;25518;47.878;15.914;2023-05-02T00:29:24;5.15;;;2.63;;
39848;SDS011;25518;47.878;15.914;2023-05-02T00:32:13;4.72;;;2.50;;
39848;SDS011;25518;47.878;15.914;2023-05-02T00:35:03;4.50;;;2.70;;
39848;SDS011;25518;47.878;15.914;2023-05-02T00:37:53;5.23;;;2.77;;
39848;SDS011;25518;47.878;15.914;2023-05-02T00:40:46;4.63;;;2.70;;
39848;SDS011;25518;47.878;15.914;2023-05-02T00:43:37;4.40;;;2.85;;
39848;SDS011;25518;47.878;15.914;2023-05-02T00:46:27;5.28;;;2.70;;
39848;SDS011;25518;47.878;15.914;2023-05-02T00:49:17;4.30;;;2.80;;
39848;SDS011;25518;47.878;15.914;2023-05-02T00:52:07;4.55;;;2.60;;
39848;SDS011;25518;47.878;15.914;2023-05-02T00:54:57;4.22;;;2.85;;
39848;SDS011;25518;47.878;15.914;2023-05-02T00:57:47;4.53;;;2.60;;
39848;SDS011;25518;47.878;15.914;2023-05-02T01:07:01;5.35;;;3.00;;
39848;SDS011;25518;47.878;15.914;2023-05-02T01:10:13;5.07;;;2.70;;
39848;SDS011;25518;47.878;15.914;2023-05-02T01:12:53;6.22;;;3.15;;
39848;SDS011;25518;47.878;15.914;2023-05-02T01:15:52;4.82;;;2.97;;
39848;SDS011;25518;47.878;15.914;2023-05-02T01:18:46;4.32;;;2.97;;
39848;SDS011;25518;47.878;15.914;2023-05-02T01:21:38;6.68;;;3.42;;
39848;SDS011;25518;47.878;15.914;2023-05-02T01:24:29;4.82;;;2.90;;
39848;SDS011;25518;47.878;15.914;2023-05-02T01:30:22;4.90;;;2.70;;
39848;SDS011;25518;47.878;15.914;2023-05-02T01:33:15;5.13;;;2.57;;
39848;SDS011;25518;47.878;15.914;2023-05-02T01:36:06;6.13;;;3.40;;
39848;SDS011;25518;47.878;15.914;2023-05-02T01:38:58;4.93;;;2.85;;
39848;SDS011;25518;47.878;15.914;2023-05-02T01:41:49;5.67;;;2.97;;
39848;SDS011;25518;47.878;15.914;2023-05-02T01:44:42;4.10;;;2.70;;
39848;SDS011;25518;47.878;15.914;2023-05-02T01:47:34;5.13;;;2.95;;
39848;SDS011;25518;47.878;15.914;2023-05-02T01:50:25;4.43;;;2.65;;
39848;SDS011;25518;47.878;15.914;2023-05-02T01:53:16;4.87;;;2.90;;
39848;SDS011;25518;47.878;15.914;2023-05-02T01:56:06;4.22;;;3.10;;
39848;SDS011;25518;47.878;15.914;2023-05-02T01:58:56;4.28;;;2.83;;
39848;SDS011;25518;47.878;15.914;2023-05-02T02:01:49;4.90;;;2.75;;
39848;SDS011;25518;47.878;15.914;2023-05-02T02:04:40;4.68;;;2.72;;
39848;SDS011;25518;47.878;15.914;2023-05-02T02:07:30;7.97;;;3.22;;
39848;SDS011;25518;47.878;15.914;2023-05-02T02:10:20;5.43;;;3.00;;
39848;SDS011;25518;47.878;15.914;2023-05-02T02:13:16;4.38;;;2.40;;
39848;SDS011;25518;47.878;15.914;2023-05-02T02:16:13;5.20;;;3.00;;
39848;SDS011;25518;47.878;15.914;2023-05-02T02:19:12;5.13;;;2.70;;
39848;SDS011;25518;47.878;15.914;2023-05-02T02:22:03;4.63;;;2.88;;
39848;SDS011;25518;47.878;15.914;2023-05-02T02:24:55;3.77;;;2.70;;
39848;SDS011;25518;47.878;15.914;2023-05-02T02:27:46;4.32;;;2.95;;
39848;SDS011;25518;47.878;15.914;2023-05-02T02:30:37;5.10;;;2.95;;
39848;SDS011;25518;47.878;15.914;2023-05-02T02:33:28;5.85;;;2.67;;
39848;SDS011;25518;47.878;15.914;2023-05-02T02:36:23;4.53;;;2.85;;
39848;SDS011;25518;47.878;15.914;2023-05-02T02:46:05;4.43;;;2.80;;
39848;SDS011;25518;47.878;15.914;2023-05-02T02:51:30;4.47;;;2.72;;
39848;SDS011;25518;47.878;15.914;2023-05-02T02:54:34;6.45;;;3.28;;
39848;SDS011;25518;47.878;15.914;2023-05-02T03:00:35;6.50;;;2.75;;
39848;SDS011;25518;47.878;15.914;2023-05-02T03:17:31;4.38;;;2.78;;
39848;SDS011;25518;47.878;15.914;2023-05-02T03:20:21;4.10;;;2.67;;
39848;SDS011;25518;47.878;15.914;2023-05-02T03:23:11;4.68;;;3.03;;
39848;SDS011;25518;47.878;15.914;2023-05-02T03:26:01;4.27;;;2.90;;
39848;SDS011;25518;47.878;15.914;2023-05-02T03:28:50;4.13;;;2.73;;
39848;SDS011;25518;47.878;15.914;2023-05-02T03:31:40;3.95;;;2.75;;
39848;SDS011;25518;47.878;15.914;2023-05-02T03:34:30;3.92;;;2.58;;
39848;SDS011;25518;47.878;15.914;2023-05-02T03:37:19;5.00;;;3.10;;
39848;SDS011;25518;47.878;15.914;2023-05-02T03:40:09;5.00;;;2.67;;
39848;SDS011;25518;47.878;15.914;2023-05-02T03:42:59;4.53;;;2.97;;
39848;SDS011;25518;47.878;15.914;2023-05-02T03:45:48;4.72;;;2.60;;
39848;SDS011;25518;47.878;15.914;2023-05-02T03:48:38;4.97;;;2.90;;
39848;SDS011;25518;47.878;15.914;2023-05-02T03:51:27;4.30;;;2.80;;
39848;SDS011;25518;47.878;15.914;2023-05-02T03:54:17;6.10;;;3.00;;
39848;SDS011;25518;47.878;15.914;2023-05-02T03:57:06;3.93;;;2.60;;
39848;SDS011;25518;47.878;15.914;2023-05-02T03:59:56;4.30;;;2.78;;
39848;SDS011;25518;47.878;15.914;2023-05-02T04:02:46;5.85;;;3.15;;
39848;SDS011;25518;47.878;15.914;2023-05-02T04:05:36;3.88;;;2.50;;
39848;SDS011;25518;47.878;15.914;2023-05-02T04:08:25;5.13;;;3.13;;
39848;SDS011;25518;47.878;15.914;2023-05-02T04:11:15;4.80;;;3.00;;
39848;SDS011;25518;47.878;15.914;2023-05-02T04:14:05;5.68;;;3.05;;
39848;SDS011;25518;47.878;15.914;2023-05-02T04:16:54;4.30;;;2.63;;
39848;SDS011;25518;47.878;15.914;2023-05-02T04:19:44;5.03;;;2.63;;
39848;SDS011;25518;47.878;15.914;2023-05-02T04:22:34;3.85;;;2.58;;
39848;SDS011;25518;47.878;15.914;2023-05-02T04:25:24;7.20;;;4.38;;
39848;SDS011;25518;47.878;15.914;2023-05-02T04:28:14;11.50;;;6.75;;
39848;SDS011;25518;47.878;15.914;2023-05-02T04:31:03;10.48;;;7.45;;
39848;SDS011;25518;47.878;15.914;2023-05-02T04:33:53;11.23;;;6.68;;
39848;SDS011;25518;47.878;15.914;2023-05-02T04:36:44;7.65;;;5.53;;
39848;SDS011;25518;47.878;15.914;2023-05-02T04:39:34;10.80;;;5.40;;
39848;SDS011;25518;47.878;15.914;2023-05-02T04:42:24;8.48;;;5.88;;
39848;SDS011;25518;47.878;15.914;2023-05-02T04:45:14;7.43;;;5.77;;
39848;SDS011;25518;47.878;15.914;2023-05-02T04:48:04;10.48;;;6.50;;
39848;SDS011;25518;47.878;15.914;2023-05-02T04:50:54;8.45;;;5.55;;
39848;SDS011;25518;47.878;15.914;2023-05-02T04:53:43;9.63;;;5.93;;
39848;SDS011;25518;47.878;15.914;2023-05-02T04:56:33;8.05;;;5.63;;
39848;SDS011;25518;47.878;15.914;2023-05-02T04:59:22;10.10;;;6.32;;
39848;SDS011;25518;47.878;15.914;2023-05-02T05:02:12;10.02;;;5.82;;
39848;SDS011;25518;47.878;15.914;2023-05-02T05:05:01;7.97;;;6.10;;
39848;SDS011;25518;47.878;15.914;2023-05-02T05:07:52;11.55;;;6.03;;
39848;SDS011;25518;47.878;15.914;2023-05-02T05:10:41;6.80;;;3.90;;
39848;SDS011;25518;47.878;15.914;2023-05-02T05:13:31;4.60;;;3.00;;
39848;SDS011;25518;47.878;15.914;2023-05-02T05:16:21;4.28;;;2.85;;
39848;SDS011;25518;47.878;15.914;2023-05-02T05:19:10;5.20;;;2.80;;
39848;SDS011;25518;47.878;15.914;2023-05-02T05:22:00;5.45;;;3.15;;
39848;SDS011;25518;47.878;15.914;2023-05-02T05:24:50;4.40;;;2.72;;
39848;SDS011;25518;47.878;15.914;2023-05-02T05:27:41;5.10;;;3.00;;
39848;SDS011;25518;47.878;15.914;2023-05-02T05:36:02;4.50;;;2.90;;
39848;SDS011;25518;47.878;15.914;2023-05-02T05:38:54;4.90;;;2.90;;
39848;SDS011;25518;47.878;15.914;2023-05-02T05:41:43;4.72;;;2.83;;
39848;SDS011;25518;47.878;15.914;2023-05-02T05:44:34;4.72;;;3.10;;
39848;SDS011;25518;47.878;15.914;2023-05-02T05:47:24;5.88;;;3.13;;
39848;SDS011;25518;47.878;15.914;2023-05-02T05:50:14;4.43;;;2.50;;
39848;SDS011;25518;47.878;15.914;2023-05-02T05:53:03;6.13;;;3.65;;
39848;SDS011;25518;47.878;15.914;2023-05-02T05:55:53;5.88;;;3.30;;
39848;SDS011;25518;47.878;15.914;2023-05-02T05:58:42;4.90;;;3.38;;
39848;SDS011;25518;47.878;15.914;2023-05-02T06:01:32;4.65;;;2.92;;
39848;SDS011;25518;47.878;15.914;2023-05-02T06:04:23;4.63;;;2.97;;
39848;SDS011;25518;47.878;15.914;2023-05-02T06:07:13;4.28;;;2.70;;
39848;SDS011;25518;47.878;15.914;2023-05-02T06:10:02;5.05;;;2.85;;
39848;SDS011;25518;47.878;15.914;2023-05-02T06:12:52;4.55;;;2.97;;
39848;SDS011;25518;47.878;15.914;2023-05-02T06:15:42;4.17;;;2.60;;
39848;SDS011;25518;47.878;15.914;2023-05-02T06:18:31;6.53;;;3.10;;
39848;SDS011;25518;47.878;15.914;2023-05-02T06:21:21;5.22;;;2.90;;
39848;SDS011;25518;47.878;15.914;2023-05-02T06:24:11;3.80;;;2.70;;
39848;SDS011;25518;47.878;15.914;2023-05-02T06:27:01;5.72;;;2.85;;
39848;SDS011;25518;47.878;15.914;2023-05-02T06:29:51;5.00;;;3.42;;
39848;SDS011;25518;47.878;15.914;2023-05-02T06:32:41;5.78;;;3.50;;
39848;SDS011;25518;47.878;15.914;2023-05-02T06:35:31;4.90;;;3.20;;
39848;SDS011;25518;47.878;15.914;2023-05-02T06:38:21;4.70;;;3.42;;
39848;SDS011;25518;47.878;15.914;2023-05-02T06:41:12;5.60;;;3.53;;
39848;SDS011;25518;47.878;15.914;2023-05-02T06:44:02;6.47;;;3.80;;
39848;SDS011;25518;47.878;15.914;2023-05-02T06:46:52;5.50;;;3.35;;
39848;SDS011;25518;47.878;15.914;2023-05-02T06:49:43;5.07;;;3.47;;
39848;SDS011;25518;47.878;15.914;2023-05-02T06:52:33;5.25;;;3.50;;
39848;SDS011;25518;47.878;15.914;2023-05-02T06:55:23;6.10;;;3.90;;
39848;SDS011;25518;47.878;15.914;2023-05-02T06:58:13;5.43;;;3.45;;
39848;SDS011;25518;47.878;15.914;2023-05-02T07:01:02;6.43;;;3.80;;
39848;SDS011;25518;47.878;15.914;2023-05-02T07:03:52;5.95;;;4.10;;
39848;SDS011;25518;47.878;15.914;2023-05-02T07:06:42;5.05;;;3.42;;
39848;SDS011;25518;47.878;15.914;2023-05-02T07:09:31;6.50;;;3.80;;
39848;SDS011;25518;47.878;15.914;2023-05-02T07:12:21;5.43;;;3.88;;
39848;SDS011;25518;47.878;15.914;2023-05-02T07:15:11;5.28;;;3.70;;
39848;SDS011;25518;47.878;15.914;2023-05-02T07:18:01;5.60;;;3.97;;
39848;SDS011;25518;47.878;15.914;2023-05-02T07:20:51;5.85;;;3.78;;
39848;SDS011;25518;47.878;15.914;2023-05-02T07:23:40;6.83;;;3.50;;
39848;SDS011;25518;47.878;15.914;2023-05-02T07:26:30;5.50;;;3.60;;
39848;SDS011;25518;47.878;15.914;2023-05-02T07:29:20;6.53;;;3.67;;
39848;SDS011;25518;47.878;15.914;2023-05-02T07:49:54;4.63;;;3.23;;
39848;SDS011;25518;47.878;15.914;2023-05-02T07:52:44;4.88;;;3.25;;
39848;SDS011;25518;47.878;15.914;2023-05-02T07:55:33;4.32;;;2.80;;
39848;SDS011;25518;47.878;15.914;2023-05-02T07:58:23;5.18;;;3.03;;
39848;SDS011;25518;47.878;15.914;2023-05-02T08:01:12;5.00;;;3.20;;
39848;SDS011;25518;47.878;15.914;2023-05-02T08:04:02;4.53;;;2.93;;
39848;SDS011;25518;47.878;15.914;2023-05-02T08:06:52;3.97;;;2.60;;
39848;SDS011;25518;47.878;15.914;2023-05-02T08:09:42;4.65;;;2.80;;
39848;SDS011;25518;47.878;15.914;2023-05-02T08:12:31;4.85;;;2.70;;
39848;SDS011;25518;47.878;15.914;2023-05-02T08:15:25;4.40;;;3.00;;
39848;SDS011;25518;47.878;15.914;2023-05-02T08:18:14;3.90;;;2.58;;
39848;SDS011;25518;47.878;15.914;2023-05-02T08:21:04;4.40;;;2.33;;
39848;SDS011;25518;47.878;15.914;2023-05-02T08:23:56;4.10;;;2.47;;
39848;SDS011;25518;47.878;15.914;2023-05-02T08:26:47;4.28;;;2.58;;
39848;SDS011;25518;47.878;15.914;2023-05-02T08:29:37;4.50;;;2.50;;
39848;SDS011;25518;47.878;15.914;2023-05-02T08:32:26;4.32;;;2.40;;
39848;SDS011;25518;47.878;15.914;2023-05-02T08:35:17;3.77;;;2.10;;
39848;SDS011;25518;47.878;15.914;2023-05-02T08:38:07;4.03;;;2.23;;
39848;SDS011;25518;47.878;15.914;2023-05-02T08:40:56;4.10;;;2.30;;
39848;SDS011;25518;47.878;15.914;2023-05-02T08:43:46;3.30;;;2.05;;
39848;SDS011;25518;47.878;15.914;2023-05-02T08:46:36;3.90;;;2.22;;
39848;SDS011;25518;47.878;15.914;2023-05-02T08:49:31;3.40;;;2.10;;
39848;SDS011;25518;47.878;15.914;2023-05-02T08:52:22;4.27;;;1.97;;
39848;SDS011;25518;47.878;15.914;2023-05-02T08:55:13;3.35;;;1.80;;
39848;SDS011;25518;47.878;15.914;2023-05-02T08:58:04;3.30;;;2.03;;
39848;SDS011;25518;47.878;15.914;2023-05-02T09:00:55;3.90;;;1.95;;
39848;SDS011;25518;47.878;15.914;2023-05-02T09:03:48;2.97;;;1.77;;
39848;SDS011;25518;47.878;15.914;2023-05-02T09:06:43;3.58;;;1.98;;
39848;SDS011;25518;47.878;15.914;2023-05-02T09:09:33;3.35;;;1.95;;
39848;SDS011;25518;47.878;15.914;2023-05-02T09:12:24;2.67;;;1.60;;
39848;SDS011;25518;47.878;15.914;2023-05-02T09:15:15;2.90;;;1.52;;
39848;SDS011;25518;47.878;15.914;2023-05-02T09:18:08;3.58;;;2.03;;
39848;SDS011;25518;47.878;15.914;2023-05-02T09:21:10;3.10;;;1.83;;
39848;SDS011;25518;47.878;15.914;2023-05-02T09:24:01;3.15;;;1.77;;
39848;SDS011;25518;47.878;15.914;2023-05-02T09:27:04;4.15;;;2.08;;
39848;SDS011;25518;47.878;15.914;2023-05-02T09:30:16;3.50;;;1.90;;
39848;SDS011;25518;47.878;15.914;2023-05-02T09:33:10;4.50;;;2.70;;
39848;SDS011;25518;47.878;15.914;2023-05-02T09:36:02;2.97;;;1.70;;
39848;SDS011;25518;47.878;15.914;2023-05-02T09:38:52;2.72;;;1.70;;
39848;SDS011;25518;47.878;15.914;2023-05-02T09:42:01;3.92;;;2.22;;
39848;SDS011;25518;47.878;15.914;2023-05-02T09:44:51;2.95;;;1.80;;
39848;SDS011;25518;47.878;15.914;2023-05-02T09:47:40;3.30;;;2.05;;
39848;SDS011;25518;47.878;15.914;2023-05-02T09:50:30;3.38;;;1.83;;
39848;SDS011;25518;47.878;15.914;2023-05-02T09:53:24;6.78;;;3.53;;
39848;SDS011;25518;47.878;15.914;2023-05-02T09:56:15;5.28;;;2.60;;
39848;SDS011;25518;47.878;15.914;2023-05-02T09:59:13;6.47;;;2.88;;
39848;SDS011;25518;47.878;15.914;2023-05-02T10:02:04;7.05;;;4.20;;
39848;SDS011;25518;47.878;15.914;2023-05-02T10:04:57;3.58;;;1.92;;
39848;SDS011;25518;47.878;15.914;2023-05-02T10:07:48;4.28;;;2.10;;
39848;SDS011;25518;47.878;15.914;2023-05-02T10:10:38;4.93;;;2.88;;
39848;SDS011;25518;47.878;15.914;2023-05-02T10:13:29;3.50;;;2.22;;
39848;SDS011;25518;47.878;15.914;2023-05-02T10:16:25;4.03;;;2.60;;
39848;SDS011;25518;47.878;15.914;2023-05-02T10:19:19;3.40;;;2.13;;
39848;SDS011;25518;47.878;15.914;2023-05-02T10:22:15;3.53;;;1.95;;
39848;SDS011;25518;47.878;15.914;2023-05-02T10:25:08;3.85;;;2.03;;
39848;SDS011;25518;47.878;15.914;2023-05-02T10:27:58;3.20;;;2.00;;
39848;SDS011;25518;47.878;15.914;2023-05-02T10:30:49;3.45;;;1.95;;
39848;SDS011;25518;47.878;15.914;2023-05-02T10:33:39;4.00;;;2.00;;
39848;SDS011;25518;47.878;15.914;2023-05-02T10:36:30;3.15;;;1.90;;
39848;SDS011;25518;47.878;15.914;2023-05-02T10:39:21;2.90;;;1.80;;
39848;SDS011;25518;47.878;15.914;2023-05-02T10:42:12;2.72;;;1.80;;
39848;SDS011;25518;47.878;15.914;2023-05-02T10:45:03;3.40;;;2.00;;
39848;SDS011;25518;47.878;15.914;2023-05-02T10:48:11;2.95;;;1.90;;
39848;SDS011;25518;47.878;15.914;2023-05-02T10:51:01;2.75;;;1.60;;
39848;SDS011;25518;47.878;15.914;2023-05-02T10:53:51;2.88;;;1.83;;
39848;SDS011;25518;47.878;15.914;2023-05-02T10:57:10;4.10;;;2.03;;
39848;SDS011;25518;47.878;15.914;2023-05-02T10:59:51;3.27;;;1.97;;
39848;SDS011;25518;47.878;15.914;2023-05-02T11:05:31;2.95;;;1.50;;
39848;SDS011;25518;47.878;15.914;2023-05-02T11:08:40;2.47;;;1.50;;
39848;SDS011;25518;47.878;15.914;2023-05-02T11:11:37;2.00;;;1.40;;
39848;SDS011;25518;47.878;15.914;2023-05-02T11:17:22;1.52;;;0.90;;
39848;SDS011;25518;47.878;15.914;2023-05-02T11:23:22;1.63;;;0.93;;
39848;SDS011;25518;47.878;15.914;2023-05-02T11:26:21;1.52;;;1.05;;
39848;SDS011;25518;47.878;15.914;2023-05-02T11:29:10;1.90;;;1.20;;
39848;SDS011;25518;47.878;15.914;2023-05-02T11:32:00;2.22;;;1.15;;
39848;SDS011;25518;47.878;15.914;2023-05-02T11:34:50;1.92;;;1.00;;
39848;SDS011;25518;47.878;15.914;2023-05-02T11:37:40;2.00;;;1.10;;
39848;SDS011;25518;47.878;15.914;2023-05-02T11:40:30;2.17;;;1.20;;
39848;SDS011;25518;47.878;15.914;2023-05-02T11:43:20;3.83;;;1.90;;
39848;SDS011;25518;47.878;15.914;2023-05-02T11:46:12;4.05;;;1.98;;
39848;SDS011;25518;47.878;15.914;2023-05-02T11:49:02;7.13;;;3.28;;
39848;SDS011;25518;47.878;15.914;2023-05-02T11:51:52;3.80;;;1.45;;
39848;SDS011;25518;47.878;15.914;2023-05-02T11:54:41;3.38;;;1.40;;
39848;SDS011;25518;47.878;15.914;2023-05-02T11:57:32;2.50;;;1.30;;
39848;SDS011;25518;47.878;15.914;2023-05-02T12:00:25;3.67;;;1.90;;
39848;SDS011;25518;47.878;15.914;2023-05-02T12:06:18;2.58;;;1.50;;
39848;SDS011;25518;47.878;15.914;2023-05-02T12:09:08;3.60;;;1.80;;
39848;SDS011;25518;47.878;15.914;2023-05-02T12:12:04;3.83;;;1.73;;
39848;SDS011;25518;47.878;15.914;2023-05-02T12:14:55;2.33;;;1.40;;
39848;SDS011;25518;47.878;15.914;2023-05-02T12:17:46;2.80;;;1.50;;
39848;SDS011;25518;47.878;15.914;2023-05-02T12:20:39;2.63;;;1.50;;
39848;SDS011;25518;47.878;15.914;2023-05-02T12:23:30;2.97;;;1.52;;
39848;SDS011;25518;47.878;15.914;2023-05-02T12:26:21;3.05;;;1.75;;
39848;SDS011;25518;47.878;15.914;2023-05-02T12:29:13;2.40;;;1.50;;
39848;SDS011;25518;47.878;15.914;2023-05-02T12:32:02;3.00;;;1.70;;
39848;SDS011;25518;47.878;15.914;2023-05-02T12:34:52;2.88;;;1.60;;
39848;SDS011;25518;47.878;15.914;2023-05-02T12:37:41;3.47;;;1.90;;
39848;SDS011;25518;47.878;15.914;2023-05-02T12:40:32;2.97;;;1.50;;
39848;SDS011;25518;47.878;15.914;2023-05-02T12:43:22;3.60;;;1.50;;
39848;SDS011;25518;47.878;15.914;2023-05-02T12:46:11;4.57;;;1.70;;
39848;SDS011;25518;47.878;15.914;2023-05-02T12:49:01;4.88;;;2.05;;
39848;SDS011;25518;47.878;15.914;2023-05-02T12:51:53;2.65;;;1.55;;
39848;SDS011;25518;47.878;15.914;2023-05-02T12:54:44;2.60;;;1.63;;
39848;SDS011;25518;47.878;15.914;2023-05-02T12:57:35;3.25;;;1.67;;
39848;SDS011;25518;47.878;15.914;2023-05-02T13:00:25;2.35;;;1.42;;
39848;SDS011;25518;47.878;15.914;2023-05-02T13:03:14;3.22;;;1.73;;
39848;SDS011;25518;47.878;15.914;2023-05-02T13:06:04;3.85;;;2.17;;
39848;SDS011;25518;47.878;15.914;2023-05-02T13:08:54;4.22;;;2.00;;
39848;SDS011;25518;47.878;15.914;2023-05-02T13:11:44;3.10;;;2.03;;
39848;SDS011;25518;47.878;15.914;2023-05-02T13:14:34;4.10;;;1.80;;
39848;SDS011;25518;47.878;15.914;2023-05-02T13:17:23;3.45;;;2.28;;
39848;SDS011;25518;47.878;15.914;2023-05-02T13:20:13;3.17;;;2.40;;
39848;SDS011;25518;47.878;15.914;2023-05-02T13:23:03;2.90;;;1.65;;
39848;SDS011;25518;47.878;15.914;2023-05-02T13:25:53;3.13;;;1.90;;
39848;SDS011;25518;47.878;15.914;2023-05-02T13:28:43;3.55;;;1.60;;
39848;SDS011;25518;47.878;15.914;2023-05-02T13:31:32;3.10;;;2.10;;
39848;SDS011;25518;47.878;15.914;2023-05-02T13:34:22;3.58;;;1.95;;
39848;SDS011;25518;47.878;15.914;2023-05-02T13:37:12;5.55;;;1.92;;
39848;SDS011;25518;47.878;15.914;2023-05-02T13:40:01;4.28;;;2.10;;
39848;SDS011;25518;47.878;15.914;2023-05-02T13:42:52;5.05;;;1.88;;
39848;SDS011;25518;47.878;15.914;2023-05-02T13:45:42;3.03;;;1.90;;
39848;SDS011;25518;47.878;15.914;2023-05-02T13:48:31;3.40;;;1.73;;
39848;SDS011;25518;47.878;15.914;2023-05-02T13:51:21;3.70;;;2.10;;
39848;SDS011;25518;47.878;15.914;2023-05-02T13:54:12;4.38;;;2.28;;
39848;SDS011;25518;47.878;15.914;2023-05-02T13:57:03;3.50;;;2.03;;
39848;SDS011;25518;47.878;15.914;2023-05-02T13:59:53;3.20;;;2.17;;
39848;SDS011;25518;47.878;15.914;2023-05-02T14:02:43;3.53;;;2.13;;
39848;SDS011;25518;47.878;15.914;2023-05-02T14:05:36;2.85;;;1.67;;
39848;SDS011;25518;47.878;15.914;2023-05-02T14:08:28;2.92;;;1.92;;
39848;SDS011;25518;47.878;15.914;2023-05-02T14:11:18;3.25;;;1.90;;
39848;SDS011;25518;47.878;15.914;2023-05-02T14:14:08;4.22;;;1.90;;
39848;SDS011;25518;47.878;15.914;2023-05-02T14:17:00;3.53;;;2.10;;
39848;SDS011;25518;47.878;15.914;2023-05-02T14:19:50;3.28;;;1.90;;
39848;SDS011;25518;47.878;15.914;2023-05-02T14:22:40;3.33;;;2.00;;
39848;SDS011;25518;47.878;15.914;2023-05-02T14:25:29;3.35;;;2.30;;
39848;SDS011;25518;47.878;15.914;2023-05-02T14:28:19;3.15;;;2.03;;
39848;SDS011;25518;47.878;15.914;2023-05-02T14:31:08;3.60;;;2.10;;
39848;SDS011;25518;47.878;15.914;2023-05-02T14:33:59;3.45;;;2.17;;
39848;SDS011;25518;47.878;15.914;2023-05-02T14:36:48;3.45;;;1.90;;
39848;SDS011;25518;47.878;15.914;2023-05-02T14:39:38;3.00;;;1.80;;
39848;SDS011;25518;47.878;15.914;2023-05-02T14:42:30;3.30;;;2.00;;
39848;SDS011;25518;47.878;15.914;2023-05-02T14:45:19;3.42;;;2.00;;
39848;SDS011;25518;47.878;15.914;2023-05-02T14:48:09;3.53;;;2.20;;
39848;SDS011;25518;47.878;15.914;2023-05-02T14:51:02;3.88;;;1.85;;
39848;SDS011;25518;47.878;15.914;2023-05-02T14:53:52;4.05;;;2.00;;
39848;SDS011;25518;47.878;15.914;2023-05-02T14:56:42;2.85;;;1.65;;
39848;SDS011;25518;47.878;15.914;2023-05-02T14:59:32;4.35;;;2.25;;
39848;SDS011;25518;47.878;15.914;2023-05-02T15:02:23;4.03;;;2.20;;
39848;SDS011;25518;47.878;15.914;2023-05-02T15:05:13;5.05;;;2.03;;
39848;SDS011;25518;47.878;15.914;2023-05-02T15:08:03;3.50;;;2.28;;
39848;SDS011;25518;47.878;15.914;2023-05-02T15:10:53;3.00;;;2.00;;
39848;SDS011;25518;47.878;15.914;2023-05-02T15:13:44;5.17;;;2.23;;
39848;SDS011;25518;47.878;15.914;2023-05-02T15:16:34;3.67;;;2.13;;
39848;SDS011;25518;47.878;15.914;2023-05-02T15:19:25;3.10;;;2.00;;
39848;SDS011;25518;47.878;15.914;2023-05-02T15:22:15;3.50;;;1.83;;
39848;SDS011;25518;47.878;15.914;2023-05-02T15:25:06;3.03;;;1.98;;
39848;SDS011;25518;47.878;15.914;2023-05-02T15:27:56;4.03;;;2.73;;
39848;SDS011;25518;47.878;15.914;2023-05-02T15:30:46;3.70;;;2.20;;
39848;SDS011;25518;47.878;15.914;2023-05-02T15:33:36;4.53;;;2.00;;
39848;SDS011;25518;47.878;15.914;2023-05-02T15:36:26;3.40;;;2.00;;
39848;SDS011;25518;47.878;15.914;2023-05-02T15:39:17;2.88;;;1.95;;
39848;SDS011;25518;47.878;15.914;2023-05-02T15:42:07;3.92;;;2.30;;
39848;SDS011;25518;47.878;15.914;2023-05-02T15:44:56;3.13;;;2.08;;
39848;SDS011;25518;47.878;15.914;2023-05-02T15:47:46;3.45;;;2.17;;
39848;SDS011;25518;47.878;15.914;2023-05-02T15:50:36;3.40;;;2.00;;
39848;SDS011;25518;47.878;15.914;2023-05-02T15:53:25;3.30;;;2.20;;
39848;SDS011;25518;47.878;15.914;2023-05-02T15:56:15;3.85;;;2.00;;
39848;SDS011;25518;47.878;15.914;2023-05-02T15:59:05;3.47;;;2.08;;
39848;SDS011;25518;47.878;15.914;2023-05-02T16:01:55;3.78;;;2.20;;
39848;SDS011;25518;47.878;15.914;2023-05-02T16:04:44;3.22;;;2.03;;
39848;SDS011;25518;47.878;15.914;2023-05-02T16:07:34;4.03;;;2.13;;
39848;SDS011;25518;47.878;15.914;2023-05-02T16:10:24;4.38;;;2.42;;
39848;SDS011;25518;47.878;15.914;2023-05-02T16:13:14;3.50;;;2.05;;
39848;SDS011;25518;47.878;15.914;2023-05-02T16:16:03;4.47;;;2.70;;
39848;SDS011;25518;47.878;15.914;2023-05-02T16:18:55;4.28;;;2.25;;
39848;SDS011;25518;47.878;15.914;2023-05-02T16:21:45;3.67;;;2.30;;
39848;SDS011;25518;47.878;15.914;2023-05-02T16:24:35;3.38;;;2.28;;
39848;SDS011;25518;47.878;15.914;2023-05-02T16:27:25;3.33;;;1.88;;
39848;SDS011;25518;47.878;15.914;2023-05-02T16:30:14;3.03;;;1.98;;
39848;SDS011;25518;47.878;15.914;2023-05-02T16:33:04;3.13;;;1.88;;
39848;SDS011;25518;47.878;15.914;2023-05-02T16:36:01;2.88;;;1.90;;
39848;SDS011;25518;47.878;15.914;2023-05-02T16:38:51;2.97;;;1.95;;
39848;SDS011;25518;47.878;15.914;2023-05-02T16:41:41;4.28;;;2.20;;
39848;SDS011;25518;47.878;15.914;2023-05-02T16:44:30;3.50;;;2.00;;
39848;SDS011;25518;47.878;15.914;2023-05-02T16:47:20;3.93;;;2.20;;
39848;SDS011;25518;47.878;15.914;2023-05-02T16:50:10;3.90;;;2.20;;
39848;SDS011;25518;47.878;15.914;2023-05-02T16:52:59;3.05;;;2.05;;
39848;SDS011;25518;47.878;15.914;2023-05-02T16:55:49;2.97;;;1.80;;
39848;SDS011;25518;47.878;15.914;2023-05-02T16:58:39;4.15;;;2.20;;
39848;SDS011;25518;47.878;15.914;2023-05-02T17:01:28;3.20;;;2.00;;
39848;SDS011;25518;47.878;15.914;2023-05-02T17:04:18;5.03;;;2.10;;
39848;SDS011;25518;47.878;15.914;2023-05-02T17:07:09;3.78;;;2.13;;
39848;SDS011;25518;47.878;15.914;2023-05-02T17:10:00;3.83;;;2.17;;
39848;SDS011;25518;47.878;15.914;2023-05-02T17:12:49;3.83;;;2.65;;
39848;SDS011;25518;47.878;15.914;2023-05-02T17:15:39;4.07;;;2.60;;
39848;SDS011;25518;47.878;15.914;2023-05-02T17:18:29;3.90;;;2.65;;
39848;SDS011;25518;47.878;15.914;2023-05-02T17:21:18;4.15;;;2.40;;
39848;SDS011;25518;47.878;15.914;2023-05-02T17:24:08;4.40;;;2.63;;
39848;SDS011;25518;47.878;15.914;2023-05-02T17:26:57;5.22;;;3.53;;
39848;SDS011;25518;47.878;15.914;2023-05-02T17:29:47;3.92;;;2.83;;
39848;SDS011;25518;47.878;15.914;2023-05-02T17:32:36;4.10;;;2.80;;
39848;SDS011;25518;47.878;15.914;2023-05-02T17:35:26;4.70;;;2.30;;
39848;SDS011;25518;47.878;15.914;2023-05-02T17:38:15;4.23;;;2.57;;
39848;SDS011;25518;47.878;15.914;2023-05-02T17:41:05;5.23;;;2.77;;
39848;SDS011;25518;47.878;15.914;2023-05-02T17:43:55;4.50;;;2.67;;
39848;SDS011;25518;47.878;15.914;2023-05-02T17:46:44;4.00;;;2.60;;
39848;SDS011;25518;47.878;15.914;2023-05-02T17:49:34;4.63;;;2.78;;
39848;SDS011;25518;47.878;15.914;2023-05-02T17:52:24;4.70;;;2.90;;
39848;SDS011;25518;47.878;15.914;2023-05-02T17:55:13;5.30;;;3.00;;
39848;SDS011;25518;47.878;15.914;2023-05-02T17:58:03;4.70;;;2.60;;
39848;SDS011;25518;47.878;15.914;2023-05-02T18:00:53;6.10;;;2.92;;
39848;SDS011;25518;47.878;15.914;2023-05-02T18:03:42;11.68;;;5.80;;